• Join FlightAware (Why Join?)
  • Login
  • US Flag 
07:11PM EDT


 

Airport Tracker/Info


-or-


 

Live Flight TrackerFlight Track Log ✈ UCA4838 ✈ 04-May-2013 ✈ KALB - KEWR

Flight Track Log - Related Links

Times and Time Zones

All times are in EDT time to prevent confusion due to time zone crossing. See the UCA4838 flight status page for this flight to view local times or setup timezone preferences in your user account.

Time Position Orientation Groundspeed Altitude Reporting Facility
EDT Latitude Longitude Course Direction KTS MPH feet Rate Location/Type
09:34AM 42.7589 -73.8058 325° Northwest 144 166 1,000  Level Boston Center
09:35AM 42.7858 -73.8319 325° Northwest 162 186 2,000 1,260 Climbing Boston Center
09:36AM 42.7767 -73.8939 259° West 192 221 3,300 1,320 Climbing Boston Center
09:37AM 42.7283 -73.9297 209° Southwest 198 228 4,800 1,440 Climbing Boston Center
09:38AM 42.6758 -73.9481 194° South 207 238 6,300 1,440 Climbing Boston Center
09:39AM 42.6214 -73.9750 200° South 210 242 7,800 1,320 Climbing Boston Center
09:40AM 42.5667 -74.0075 204° Southwest 211 243 9,100 1,080 Climbing Boston Center
09:41AM 42.5122 -74.0342 200° South 218 251 10,000 420 Climbing Boston Center
09:42AM 42.4469 -74.0747 205° Southwest 257 296 10,000  Level Boston Center
09:43AM 42.3650 -74.1147 200° South 272 313 10,000  Level Boston Center
09:44AM 42.2978 -74.1522 202° Southwest 272 313 10,000  Level Boston Center
09:45AM 42.2306 -74.1869 201° Southwest 272 313 10,000  Level Boston Center
09:46AM 42.1633 -74.2328 207° Southwest 272 313 10,000  Level Boston Center
09:47AM 42.0958 -74.2700 202° Southwest 267 307 10,000  Level Boston Center
09:48AM 42.0267 -74.3014 199° South 261 300 10,000  Level Boston Center
09:49AM 41.9572 -74.3328 199° South 266 306 10,000 -420 Level Boston Center
09:50AM 41.8881 -74.3672 200° South 271 312 9,200 -840 Descending Boston Center
09:51AM 41.8144 -74.4039 200° South 277 319 8,400 -840 Descending Boston Center
09:52AM 41.7408 -74.4350 198° South 277 319 7,600 -720 Descending Boston Center
09:53AM 41.6694 -74.4717 201° Southwest 277 319 7,000 -300 Descending Boston Center
09:54AM 41.6022 -74.5028 199° South 271 312 7,000  Level Boston Center
09:55AM 41.5328 -74.5339 199° South 271 312 7,000 -540 Level Boston Center
09:56AM 41.4592 -74.5647 197° South 271 312 6,000 -480 Descending Boston Center
09:58AM 41.3667 -74.6000 196° South 263 303 6,000  Level New York TRACON
09:59AM 41.3167 -74.6167 194° South 250 288 6,000  Level New York TRACON
10:00AM 41.2500 -74.6167 180° South 244 281 6,000  Level New York TRACON
10:01AM 41.1833 -74.6000 169° South 248 285 6,000  Level New York TRACON
10:02AM 41.1000 -74.5833 171° South 248 285 6,000  Level New York TRACON
10:02AM 41.0500 -74.5833 180° South 248 285 6,000  Level New York TRACON
10:03AM 40.9833 -74.5667 169° South 249 287 6,000  Level New York TRACON
10:04AM 40.9000 -74.5500 171° South 251 289 6,000  Level New York TRACON
10:05AM 40.8333 -74.5500 180° South 250 288 6,000  Level New York TRACON
10:06AM 40.7667 -74.5333 169° South 247 284 6,000  Level New York TRACON
10:07AM 40.7000 -74.5167 169° South 250 288 6,100 -420 Climbing New York TRACON
10:08AM 40.6333 -74.5000 169° South 259 298 5,300 -600 Descending New York TRACON
10:09AM 40.5833 -74.4500 143° Southeast 243 280 5,000 -540 Descending New York TRACON
10:10AM 40.5500 -74.3833 123° Southeast 229 264 4,300 -1,080 Descending New York TRACON
10:11AM 40.5333 -74.3167 108° East 200 230 3,000 -1,200 Descending New York TRACON
10:12AM 40.5500 -74.2667 66° East 183 211 2,000 -600 Descending New York TRACON
10:13AM 40.6000 -74.2333 27° Northeast 178 205 1,900 -480 Descending New York TRACON
10:14AM 40.6333 -74.2000 37° Northeast 148 170 1,100 -780 Descending New York TRACON
10:15AM 40.6667 -74.1833 21° North 122 140 400 -720 Descending New York TRACON
10:17AM 40.6833 -74.1667 78° East  Level FlightAware Approximate